MSC Rania — 3EEB3 — position and weather

sailwx.info

Track history (hours):
 
Tides and Currents Weather Stations Pressure Air Temp Water Temp Dewpoint Dewpoint Depression Visibility Wind Speed Wind Dir Waves Ship Positions

MSC Rania

Last reported at 2016-May-25 13:34 UTC. Time now 2016-May-29 00:06 UTC.
Position N 36°45' W 075°07'.

Length 332 m; draft 13.5 m.

Type: Ship (hazmat cat A). MMSI: 371752000.

Date/timePositionNaut miles runAvg speedWind from/ knotsBaromVisibWave heightAir tempDewpointWater temp
2016-May-25 13:34N 36°45' W 075°07'3611.9
2016-May-25 10:33N 36°51' W 075°50'1515.1
2016-May-25 09:32N 37°02' W 076°04'6214.4
2016-May-25 05:14N 38°04' W 076°13'3317.9
2016-May-25 03:25N 38°35' W 076°26'1517.5
2016-May-25 02:33N 38°50' W 076°24'1515.2
2016-May-25 01:33N 39°05' W 076°24'1010.3
2016-May-25 00:33N 39°13' W 076°32'2 2.1
2016-May-24 23:33N 39°15' W 076°33'0 0.0
2016-May-24 22:33N 39°15' W 076°33'0 0.0
2016-May-24 21:33N 39°15' W 076°33'0 0.0
2016-May-24 20:33N 39°15' W 076°33'0 0.0
2016-May-24 19:33N 39°15' W 076°32'0 0.0
2016-May-24 18:33N 39°15' W 076°33'0 0.0
2016-May-24 17:33N 39°15' W 076°33'0 0.0
2016-May-24 16:33N 39°15' W 076°33'0 0.0
2016-May-24 15:33N 39°15' W 076°33'0 0.0
2016-May-24 14:33N 39°15' W 076°33'0 0.0
2016-May-24 13:33N 39°15' W 076°33'0 0.0
2016-May-24 12:33N 39°15' W 076°33'0 0.0
2016-May-24 11:33N 39°15' W 076°33'0 0.0
2016-May-24 10:33N 39°15' W 076°33'0 0.0
2016-May-24 09:33N 39°15' W 076°33'0 0.0
2016-May-24 08:33N 39°15' W 076°33'0 0.0
2016-May-24 07:33N 39°15' W 076°33'0 0.0
2016-May-24 06:33N 39°15' W 076°33'0 0.0
2016-May-24 05:33N 39°15' W 076°33'0 0.0
2016-May-24 04:33N 39°15' W 076°33'0 0.0
2016-May-24 03:32N 39°15' W 076°33'0 0.0
2016-May-24 02:32N 39°15' W 076°32'0 0.0
2016-May-24 01:32N 39°15' W 076°33'0 0.0
2016-May-24 00:32N 39°15' W 076°33'0 0.0
2016-May-23 23:32N 39°15' W 076°33'0 0.0
2016-May-23 22:32N 39°15' W 076°33'0 0.0
2016-May-23 21:32N 39°15' W 076°33'0 0.0
2016-May-23 20:32N 39°15' W 076°32'0 0.0
2016-May-23 19:32N 39°15' W 076°33'0 0.0
2016-May-23 18:32N 39°15' W 076°33'0 0.0
2016-May-23 17:32N 39°15' W 076°33'0 0.0
2016-May-23 16:32N 39°15' W 076°33'0 0.0
2016-May-23 15:32N 39°15' W 076°33'0 0.0
2016-May-23 14:32N 39°15' W 076°33'0 0.0
2016-May-23 13:32N 39°15' W 076°33'0 0.0
2016-May-23 12:32N 39°15' W 076°33'0 0.0
2016-May-23 11:32N 39°15' W 076°33'0 0.0
2016-May-23 10:32N 39°15' W 076°33'0 0.0
2016-May-23 09:32N 39°15' W 076°33'0 0.0
2016-May-23 08:32N 39°15' W 076°33'0 0.0
2016-May-23 07:32N 39°15' W 076°33'0 0.0
2016-May-23 06:32N 39°15' W 076°33'0 0.0
2016-May-23 05:29N 39°15' W 076°33'1 0.7
2016-May-23 04:33N 39°14' W 076°33'7 7.3
2016-May-23 03:33N 39°10' W 076°25'1312.5
2016-May-23 02:33N 38°57' W 076°23'12215.3
2016-May-22 18:33N 36°57' W 075°58'1312.0
2016-May-22 17:29N 37°00' W 076°14'9 9.2
2016-May-22 16:33N 36°53' W 076°20'1 0.9
2016-May-22 15:14N 36°52' W 076°21'0 0.0
2016-May-22 14:32N 36°52' W 076°21'0 0.0
2016-May-22 13:32N 36°52' W 076°21'0 0.0
2016-May-22 12:32N 36°52' W 076°21'0 0.0
2016-May-22 11:32N 36°52' W 076°21'0 0.0
2016-May-22 10:23N 36°52' W 076°21'0 0.0
2016-May-22 09:32N 36°52' W 076°21'0 0.0
2016-May-22 08:32N 36°52' W 076°21'0 0.0
2016-May-22 07:32N 36°52' W 076°21'0 0.0
2016-May-22 06:32N 36°52' W 076°21'0 0.0
2016-May-22 05:32N 36°52' W 076°21'0 0.0
2016-May-22 04:32N 36°52' W 076°21'0 0.0
2016-May-22 03:32N 36°52' W 076°21'0 0.0
2016-May-22 02:32N 36°52' W 076°21'0 0.0
2016-May-22 01:32N 36°52' W 076°21'0 0.0
2016-May-22 00:32N 36°52' W 076°21'0 0.0
2016-May-21 23:31N 36°52' W 076°21'0 0.0
2016-May-21 22:31N 36°52' W 076°21'0 0.0
2016-May-21 21:22N 36°52' W 076°21'0 0.0
2016-May-21 18:31N 36°52' W 076°21'0 0.0
2016-May-21 14:31N 36°52' W 076°21'0 0.0
2016-May-21 13:31N 36°52' W 076°21'0 0.0
2016-May-21 12:31N 36°52' W 076°21'0 0.0
2016-May-21 10:28N 36°52' W 076°21'0 0.3
2016-May-21 09:32N 36°53' W 076°21'7 7.0
2016-May-21 08:33N 36°59' W 076°19'1110.9
2016-May-21 07:33N 36°58' W 076°05'1111.2
2016-May-21 06:33N 36°53' W 075°53'1110.0
2016-May-21 05:29N 36°49' W 075°40'1 0.0
2016-May-20 17:19N 36°49' W 075°41'0 0.0
2016-May-20 15:28N 36°49' W 075°41'0 0.0
2016-May-20 14:28N 36°49' W 075°41'0 0.0
2016-May-20 13:28N 36°49' W 075°41'0 0.0
2016-May-20 08:28N 36°49' W 075°41'0 0.0
2016-May-20 03:22N 36°49' W 075°41'0 0.0
2016-May-19 10:28N 36°49' W 075°40'71 9.0
2016-May-19 02:32N 37°38' W 074°36'101 9.1
2016-May-18 15:30N 39°15' W 073°57'9 9.5
2016-May-18 14:33N 39°24' W 073°55'10 9.8
2016-May-18 13:33N 39°33' W 073°53'9 9.5
2016-May-18 12:33N 39°43' W 073°52'1010.2
2016-May-18 11:33N 39°53' W 073°51'10 9.6
2016-May-18 10:34N 40°02' W 073°50'10 9.8
2016-May-18 09:33N 40°12' W 073°49'10 9.6
2016-May-18 08:33N 40°22' W 073°48'9 9.6
2016-May-18 07:33N 40°30' W 073°56'1212.1
2016-May-18 06:33N 40°39' W 074°06'2 2.3
2016-May-18 05:30N 40°40' W 074°08'0 0.2
2016-May-18 04:33N 40°40' W 074°09'0 0.0
2016-May-18 03:33N 40°40' W 074°09'0 0.0
2016-May-18 02:33N 40°40' W 074°09'0 0.0
2016-May-18 01:33N 40°40' W 074°09'0 0.0
2016-May-18 00:33N 40°40' W 074°09'0 0.0
2016-May-17 23:33N 40°40' W 074°09'0 0.0
2016-May-17 22:33N 40°40' W 074°09'0 0.0
2016-May-17 21:33N 40°40' W 074°09'0 0.0
2016-May-17 20:33N 40°40' W 074°09'0 0.0
2016-May-17 19:33N 40°40' W 074°09'0 0.0
2016-May-17 18:33N 40°40' W 074°09'0 0.0
2016-May-17 17:33N 40°40' W 074°09'0 0.0
2016-May-17 16:33N 40°40' W 074°09'0 0.0
2016-May-17 15:33N 40°40' W 074°09'0 0.0
2016-May-17 14:33N 40°40' W 074°09'0 0.0
2016-May-17 13:33N 40°40' W 074°09'0 0.0
2016-May-17 12:33N 40°40' W 074°09'0 0.0
2016-May-17 11:33N 40°40' W 074°09'0 0.0
2016-May-17 10:33N 40°40' W 074°09'0 0.0
2016-May-17 09:33N 40°40' W 074°09'0 0.0
2016-May-17 08:33N 40°40' W 074°09'0 0.0
2016-May-17 07:33N 40°40' W 074°09'0 0.0
2016-May-17 06:33N 40°40' W 074°09'0 0.0
2016-May-17 05:30N 40°40' W 074°09'0 0.0
2016-May-17 04:33N 40°40' W 074°09'0 0.0
2016-May-17 03:33N 40°40' W 074°09'0 0.0
2016-May-17 02:30N 40°40' W 074°09'0 0.0
2016-May-17 01:33N 40°40' W 074°09'0 0.0
2016-May-17 00:33N 40°40' W 074°09'0 0.0
2016-May-16 23:30N 40°40' W 074°09'0 0.0
2016-May-16 22:33N 40°40' W 074°09'0 0.0
2016-May-16 21:33N 40°40' W 074°09'0 0.0
2016-May-16 20:30N 40°40' W 074°09'0 0.0
2016-May-16 19:24N 40°40' W 074°09'0 0.0
2016-May-16 18:32N 40°40' W 074°09'0 0.0
2016-May-16 17:32N 40°40' W 074°09'0 0.0
2016-May-16 16:29N 40°40' W 074°09'0 0.0
2016-May-16 15:32N 40°40' W 074°09'0 0.0
2016-May-16 14:32N 40°40' W 074°09'0 0.0
2016-May-16 13:32N 40°40' W 074°09'2 1.7
2016-May-16 12:33N 40°39' W 074°07'  
Track history (hours):
 
Tides and Currents Weather Stations Pressure Air Temp Water Temp Dewpoint Dewpoint Depression Visibility Wind Speed Wind Dir Waves Ship Positions

MSC Rania

Last reported at 2016-May-25 13:34 UTC. Time now 2016-May-29 00:06 UTC.
Position N 36°45' W 075°07'.

Length 332 m; draft 13.5 m.

Type: Ship (hazmat cat A). MMSI: 371752000.

Date/timePositionNaut miles runAvg speedWind from/ knotsBaromVisibWave heightAir tempDewpointWater temp
2016-May-25 13:34N 36°45' W 075°07'3611.9
2016-May-25 10:33N 36°51' W 075°50'1515.1
2016-May-25 09:32N 37°02' W 076°04'6214.4
2016-May-25 05:14N 38°04' W 076°13'3317.9
2016-May-25 03:25N 38°35' W 076°26'1517.5
2016-May-25 02:33N 38°50' W 076°24'1515.2
2016-May-25 01:33N 39°05' W 076°24'1010.3
2016-May-25 00:33N 39°13' W 076°32'2 2.1
2016-May-24 23:33N 39°15' W 076°33'0 0.0
2016-May-24 22:33N 39°15' W 076°33'0 0.0
2016-May-24 21:33N 39°15' W 076°33'0 0.0
2016-May-24 20:33N 39°15' W 076°33'0 0.0
2016-May-24 19:33N 39°15' W 076°32'0 0.0
2016-May-24 18:33N 39°15' W 076°33'0 0.0
2016-May-24 17:33N 39°15' W 076°33'0 0.0
2016-May-24 16:33N 39°15' W 076°33'0 0.0
2016-May-24 15:33N 39°15' W 076°33'0 0.0
2016-May-24 14:33N 39°15' W 076°33'0 0.0
2016-May-24 13:33N 39°15' W 076°33'0 0.0
2016-May-24 12:33N 39°15' W 076°33'0 0.0
2016-May-24 11:33N 39°15' W 076°33'0 0.0
2016-May-24 10:33N 39°15' W 076°33'0 0.0
2016-May-24 09:33N 39°15' W 076°33'0 0.0
2016-May-24 08:33N 39°15' W 076°33'0 0.0
2016-May-24 07:33N 39°15' W 076°33'0 0.0
2016-May-24 06:33N 39°15' W 076°33'0 0.0
2016-May-24 05:33N 39°15' W 076°33'0 0.0
2016-May-24 04:33N 39°15' W 076°33'0 0.0
2016-May-24 03:32N 39°15' W 076°33'0 0.0
2016-May-24 02:32N 39°15' W 076°32'0 0.0
2016-May-24 01:32N 39°15' W 076°33'0 0.0
2016-May-24 00:32N 39°15' W 076°33'0 0.0
2016-May-23 23:32N 39°15' W 076°33'0 0.0
2016-May-23 22:32N 39°15' W 076°33'0 0.0
2016-May-23 21:32N 39°15' W 076°33'0 0.0
2016-May-23 20:32N 39°15' W 076°32'0 0.0
2016-May-23 19:32N 39°15' W 076°33'0 0.0
2016-May-23 18:32N 39°15' W 076°33'0 0.0
2016-May-23 17:32N 39°15' W 076°33'0 0.0
2016-May-23 16:32N 39°15' W 076°33'0 0.0
2016-May-23 15:32N 39°15' W 076°33'0 0.0
2016-May-23 14:32N 39°15' W 076°33'0 0.0
2016-May-23 13:32N 39°15' W 076°33'0 0.0
2016-May-23 12:32N 39°15' W 076°33'0 0.0
2016-May-23 11:32N 39°15' W 076°33'0 0.0
2016-May-23 10:32N 39°15' W 076°33'0 0.0
2016-May-23 09:32N 39°15' W 076°33'0 0.0
2016-May-23 08:32N 39°15' W 076°33'0 0.0
2016-May-23 07:32N 39°15' W 076°33'0 0.0
2016-May-23 06:32N 39°15' W 076°33'0 0.0
2016-May-23 05:29N 39°15' W 076°33'1 0.7
2016-May-23 04:33N 39°14' W 076°33'7 7.3
2016-May-23 03:33N 39°10' W 076°25'1312.5
2016-May-23 02:33N 38°57' W 076°23'12215.3
2016-May-22 18:33N 36°57' W 075°58'1312.0
2016-May-22 17:29N 37°00' W 076°14'9 9.2
2016-May-22 16:33N 36°53' W 076°20'1 0.9
2016-May-22 15:14N 36°52' W 076°21'0 0.0
2016-May-22 14:32N 36°52' W 076°21'0 0.0
2016-May-22 13:32N 36°52' W 076°21'0 0.0
2016-May-22 12:32N 36°52' W 076°21'0 0.0
2016-May-22 11:32N 36°52' W 076°21'0 0.0
2016-May-22 10:23N 36°52' W 076°21'0 0.0
2016-May-22 09:32N 36°52' W 076°21'0 0.0
2016-May-22 08:32N 36°52' W 076°21'0 0.0
2016-May-22 07:32N 36°52' W 076°21'0 0.0
2016-May-22 06:32N 36°52' W 076°21'0 0.0
2016-May-22 05:32N 36°52' W 076°21'0 0.0
2016-May-22 04:32N 36°52' W 076°21'0 0.0
2016-May-22 03:32N 36°52' W 076°21'0 0.0
2016-May-22 02:32N 36°52' W 076°21'0 0.0
2016-May-22 01:32N 36°52' W 076°21'0 0.0
2016-May-22 00:32N 36°52' W 076°21'0 0.0
2016-May-21 23:31N 36°52' W 076°21'0 0.0
2016-May-21 22:31N 36°52' W 076°21'0 0.0
2016-May-21 21:22N 36°52' W 076°21'0 0.0
2016-May-21 18:31N 36°52' W 076°21'0 0.0
2016-May-21 14:31N 36°52' W 076°21'0 0.0
2016-May-21 13:31N 36°52' W 076°21'0 0.0
2016-May-21 12:31N 36°52' W 076°21'0 0.0
2016-May-21 10:28N 36°52' W 076°21'0 0.3
2016-May-21 09:32N 36°53' W 076°21'7 7.0
2016-May-21 08:33N 36°59' W 076°19'1110.9
2016-May-21 07:33N 36°58' W 076°05'1111.2
2016-May-21 06:33N 36°53' W 075°53'1110.0
2016-May-21 05:29N 36°49' W 075°40'1 0.0
2016-May-20 17:19N 36°49' W 075°41'0 0.0
2016-May-20 15:28N 36°49' W 075°41'0 0.0
2016-May-20 14:28N 36°49' W 075°41'0 0.0
2016-May-20 13:28N 36°49' W 075°41'0 0.0
2016-May-20 08:28N 36°49' W 075°41'0 0.0
2016-May-20 03:22N 36°49' W 075°41'0 0.0
2016-May-19 10:28N 36°49' W 075°40'71 9.0
2016-May-19 02:32N 37°38' W 074°36'101 9.1
2016-May-18 15:30N 39°15' W 073°57'9 9.5
2016-May-18 14:33N 39°24' W 073°55'10 9.8
2016-May-18 13:33N 39°33' W 073°53'9 9.5
2016-May-18 12:33N 39°43' W 073°52'1010.2
2016-May-18 11:33N 39°53' W 073°51'10 9.6
2016-May-18 10:34N 40°02' W 073°50'10 9.8
2016-May-18 09:33N 40°12' W 073°49'10 9.6
2016-May-18 08:33N 40°22' W 073°48'9 9.6
2016-May-18 07:33N 40°30' W 073°56'1212.1
2016-May-18 06:33N 40°39' W 074°06'2 2.3
2016-May-18 05:30N 40°40' W 074°08'0 0.2
2016-May-18 04:33N 40°40' W 074°09'0 0.0
2016-May-18 03:33N 40°40' W 074°09'0 0.0
2016-May-18 02:33N 40°40' W 074°09'0 0.0
2016-May-18 01:33N 40°40' W 074°09'0 0.0
2016-May-18 00:33N 40°40' W 074°09'0 0.0
2016-May-17 23:33N 40°40' W 074°09'0 0.0
2016-May-17 22:33N 40°40' W 074°09'0 0.0
2016-May-17 21:33N 40°40' W 074°09'0 0.0
2016-May-17 20:33N 40°40' W 074°09'0 0.0
2016-May-17 19:33N 40°40' W 074°09'0 0.0
2016-May-17 18:33N 40°40' W 074°09'0 0.0
2016-May-17 17:33N 40°40' W 074°09'0 0.0
2016-May-17 16:33N 40°40' W 074°09'0 0.0
2016-May-17 15:33N 40°40' W 074°09'0 0.0
2016-May-17 14:33N 40°40' W 074°09'0 0.0
2016-May-17 13:33N 40°40' W 074°09'0 0.0
2016-May-17 12:33N 40°40' W 074°09'0 0.0
2016-May-17 11:33N 40°40' W 074°09'0 0.0
2016-May-17 10:33N 40°40' W 074°09'0 0.0
2016-May-17 09:33N 40°40' W 074°09'0 0.0
2016-May-17 08:33N 40°40' W 074°09'0 0.0
2016-May-17 07:33N 40°40' W 074°09'0 0.0
2016-May-17 06:33N 40°40' W 074°09'0 0.0
2016-May-17 05:30N 40°40' W 074°09'0 0.0
2016-May-17 04:33N 40°40' W 074°09'0 0.0
2016-May-17 03:33N 40°40' W 074°09'0 0.0
2016-May-17 02:30N 40°40' W 074°09'0 0.0
2016-May-17 01:33N 40°40' W 074°09'0 0.0
2016-May-17 00:33N 40°40' W 074°09'0 0.0
2016-May-16 23:30N 40°40' W 074°09'0 0.0
2016-May-16 22:33N 40°40' W 074°09'0 0.0
2016-May-16 21:33N 40°40' W 074°09'0 0.0
2016-May-16 20:30N 40°40' W 074°09'0 0.0
2016-May-16 19:24N 40°40' W 074°09'0 0.0
2016-May-16 18:32N 40°40' W 074°09'0 0.0
2016-May-16 17:32N 40°40' W 074°09'0 0.0
2016-May-16 16:29N 40°40' W 074°09'0 0.0
2016-May-16 15:32N 40°40' W 074°09'0 0.0
2016-May-16 14:32N 40°40' W 074°09'0 0.0
2016-May-16 13:32N 40°40' W 074°09'2 1.7
2016-May-16 12:33N 40°39' W 074°07'  

Dump ship's entire track history